Terminal Aerodrome Forecast
Issued by NWS

Home | Current Version | Previous Version | Graphics & Text | Print | Product List | Glossary On
Versions: 1 2 3 4 5 6 7 8 9 10 11 12 13 14 15 16 17 18 19 20 21 22 23 24
804
FTUS45 KGGW 180526
TAFGDV
TAF
KGDV 180526Z 1806/1906 08013KT 5SM -SN OVC025
     FM180700 07015KT 1SM -SN BLSN OVC015
      TEMPO 1807/1810 07018G26KT 1/2SM SN BLSN VV009
     FM181200 03015KT 3SM -SN OVC012
     FM181400 01014KT P6SM VCSH OVC015
     FM181700 01011KT P6SM BKN025=

USA.gov is the U.S. government's official web portal to all federal, state and local government web resources and services.